Terminal Aerodrome Forecast
Issued by NWS

Home | Current Version | Previous Version | Text Only | Print | Product List | Glossary On
Versions: 1 2 3 4 5 6 7 8 9 10 11 12 13
000
FTUS44 KTSA 281100
TAFBVO
TAF
KBVO 281132Z 2812/2912 18004KT P6SM FEW250
     FM281600 19018G27KT P6SM SCT250
     FM290000 22006KT P6SM SCT250
     FM290800 33008KT P6SM SCT250=

USA.gov is the U.S. government's official web portal to all federal, state and local government web resources and services.